sensor_id;sensor_type;location;lat;lon;timestamp;temperature;humidity
14138;DHT22;8199;51.310;9.466;2023-12-29T00:01:45;21.20;45.80
14138;DHT22;8199;51.310;9.466;2023-12-29T00:04:10;21.10;45.70
14138;DHT22;8199;51.310;9.466;2023-12-29T00:06:38;21.10;45.70
14138;DHT22;8199;51.310;9.466;2023-12-29T00:09:04;21.10;45.70
14138;DHT22;8199;51.310;9.466;2023-12-29T00:11:30;21.10;45.80
14138;DHT22;8199;51.310;9.466;2023-12-29T00:13:55;21.10;45.80
14138;DHT22;8199;51.310;9.466;2023-12-29T00:16:21;21.10;45.70
14138;DHT22;8199;51.310;9.466;2023-12-29T00:18:46;21.10;45.70
14138;DHT22;8199;51.310;9.466;2023-12-29T00:21:12;21.20;45.70
14138;DHT22;8199;51.310;9.466;2023-12-29T00:23:38;21.20;45.70
14138;DHT22;8199;51.310;9.466;2023-12-29T00:26:03;21.10;45.70
14138;DHT22;8199;51.310;9.466;2023-12-29T00:28:29;21.10;45.70
14138;DHT22;8199;51.310;9.466;2023-12-29T00:30:54;21.10;45.70
14138;DHT22;8199;51.310;9.466;2023-12-29T00:33:20;21.10;45.80
14138;DHT22;8199;51.310;9.466;2023-12-29T00:35:45;21.20;45.70
14138;DHT22;8199;51.310;9.466;2023-12-29T00:38:11;21.20;45.70
14138;DHT22;8199;51.310;9.466;2023-12-29T00:40:37;21.10;45.70
14138;DHT22;8199;51.310;9.466;2023-12-29T00:43:03;21.10;45.70
14138;DHT22;8199;51.310;9.466;2023-12-29T00:45:29;21.10;45.80
14138;DHT22;8199;51.310;9.466;2023-12-29T00:48:01;21.10;45.70
14138;DHT22;8199;51.310;9.466;2023-12-29T00:50:27;21.20;45.70
14138;DHT22;8199;51.310;9.466;2023-12-29T00:52:53;21.10;45.60
14138;DHT22;8199;51.310;9.466;2023-12-29T00:55:19;21.10;45.70
14138;DHT22;8199;51.310;9.466;2023-12-29T00:57:44;21.10;45.70
14138;DHT22;8199;51.310;9.466;2023-12-29T01:00:12;21.10;45.70
14138;DHT22;8199;51.310;9.466;2023-12-29T01:02:38;21.10;45.70
14138;DHT22;8199;51.310;9.466;2023-12-29T01:05:04;21.10;45.70
14138;DHT22;8199;51.310;9.466;2023-12-29T01:07:30;21.10;45.70
14138;DHT22;8199;51.310;9.466;2023-12-29T01:09:55;21.00;45.70
14138;DHT22;8199;51.310;9.466;2023-12-29T01:12:21;21.00;45.70
14138;DHT22;8199;51.310;9.466;2023-12-29T01:14:47;21.10;45.80
14138;DHT22;8199;51.310;9.466;2023-12-29T01:17:12;21.00;45.70
14138;DHT22;8199;51.310;9.466;2023-12-29T01:19:38;21.00;45.80
14138;DHT22;8199;51.310;9.466;2023-12-29T01:22:03;21.10;46.00
14138;DHT22;8199;51.310;9.466;2023-12-29T01:24:30;21.10;45.70
14138;DHT22;8199;51.310;9.466;2023-12-29T01:26:56;21.10;45.70
14138;DHT22;8199;51.310;9.466;2023-12-29T01:29:21;21.20;45.70
14138;DHT22;8199;51.310;9.466;2023-12-29T01:31:47;21.10;45.60
14138;DHT22;8199;51.310;9.466;2023-12-29T01:34:13;21.10;45.60
14138;DHT22;8199;51.310;9.466;2023-12-29T01:36:38;21.10;45.60
14138;DHT22;8199;51.310;9.466;2023-12-29T01:39:04;21.00;45.70
14138;DHT22;8199;51.310;9.466;2023-12-29T01:41:30;21.10;45.70
14138;DHT22;8199;51.310;9.466;2023-12-29T01:46:33;21.00;45.60
14138;DHT22;8199;51.310;9.466;2023-12-29T01:49:00;21.00;45.70
14138;DHT22;8199;51.310;9.466;2023-12-29T01:51:27;21.10;45.70
14138;DHT22;8199;51.310;9.466;2023-12-29T01:53:55;21.10;45.70
14138;DHT22;8199;51.310;9.466;2023-12-29T01:56:22;21.10;45.70
14138;DHT22;8199;51.310;9.466;2023-12-29T01:58:49;21.10;45.70
14138;DHT22;8199;51.310;9.466;2023-12-29T02:01:18;21.10;45.60
14138;DHT22;8199;51.310;9.466;2023-12-29T02:03:44;21.10;45.70
14138;DHT22;8199;51.310;9.466;2023-12-29T02:06:10;21.10;45.70
14138;DHT22;8199;51.310;9.466;2023-12-29T02:08:37;21.00;45.70
14138;DHT22;8199;51.310;9.466;2023-12-29T02:11:03;21.00;45.70
14138;DHT22;8199;51.310;9.466;2023-12-29T02:13:29;21.10;45.70
14138;DHT22;8199;51.310;9.466;2023-12-29T02:15:59;21.10;45.70
14138;DHT22;8199;51.310;9.466;2023-12-29T02:18:27;21.00;45.70
14138;DHT22;8199;51.310;9.466;2023-12-29T02:20:54;21.00;45.70
14138;DHT22;8199;51.310;9.466;2023-12-29T02:23:20;20.90;45.70
14138;DHT22;8199;51.310;9.466;2023-12-29T02:25:45;21.00;45.80
14138;DHT22;8199;51.310;9.466;2023-12-29T02:28:23;20.90;45.80
14138;DHT22;8199;51.310;9.466;2023-12-29T02:30:56;21.00;45.60
14138;DHT22;8199;51.310;9.466;2023-12-29T02:33:23;21.10;45.70
14138;DHT22;8199;51.310;9.466;2023-12-29T02:35:52;21.10;45.70
14138;DHT22;8199;51.310;9.466;2023-12-29T02:38:20;21.10;45.70
14138;DHT22;8199;51.310;9.466;2023-12-29T02:40:46;21.10;45.70
14138;DHT22;8199;51.310;9.466;2023-12-29T02:43:12;21.00;45.60
14138;DHT22;8199;51.310;9.466;2023-12-29T02:45:38;21.00;45.60
14138;DHT22;8199;51.310;9.466;2023-12-29T02:48:03;21.00;45.60
14138;DHT22;8199;51.310;9.466;2023-12-29T02:50:29;21.00;45.60
14138;DHT22;8199;51.310;9.466;2023-12-29T02:52:54;21.10;45.80
14138;DHT22;8199;51.310;9.466;2023-12-29T02:55:20;21.00;45.70
14138;DHT22;8199;51.310;9.466;2023-12-29T02:57:46;21.00;45.70
14138;DHT22;8199;51.310;9.466;2023-12-29T03:00:11;21.00;45.70
14138;DHT22;8199;51.310;9.466;2023-12-29T03:02:37;20.90;45.80
14138;DHT22;8199;51.310;9.466;2023-12-29T03:05:03;20.90;45.80
14138;DHT22;8199;51.310;9.466;2023-12-29T03:07:29;20.90;46.00
14138;DHT22;8199;51.310;9.466;2023-12-29T03:09:54;20.90;45.90
14138;DHT22;8199;51.310;9.466;2023-12-29T03:12:20;20.90;45.90
14138;DHT22;8199;51.310;9.466;2023-12-29T03:14:46;20.90;45.90
14138;DHT22;8199;51.310;9.466;2023-12-29T03:17:12;20.90;45.80
14138;DHT22;8199;51.310;9.466;2023-12-29T03:19:38;20.90;45.90
14138;DHT22;8199;51.310;9.466;2023-12-29T03:22:04;20.90;46.40
14138;DHT22;8199;51.310;9.466;2023-12-29T03:24:29;20.80;45.90
14138;DHT22;8199;51.310;9.466;2023-12-29T03:26:56;20.90;45.90
14138;DHT22;8199;51.310;9.466;2023-12-29T03:29:22;20.80;45.90
14138;DHT22;8199;51.310;9.466;2023-12-29T03:31:48;20.90;45.90
14138;DHT22;8199;51.310;9.466;2023-12-29T03:34:13;20.90;45.90
14138;DHT22;8199;51.310;9.466;2023-12-29T03:36:39;20.80;45.80
14138;DHT22;8199;51.310;9.466;2023-12-29T03:39:04;20.90;45.90
14138;DHT22;8199;51.310;9.466;2023-12-29T03:41:30;20.90;45.90
14138;DHT22;8199;51.310;9.466;2023-12-29T03:43:56;20.90;45.90
14138;DHT22;8199;51.310;9.466;2023-12-29T03:46:22;20.80;45.90
14138;DHT22;8199;51.310;9.466;2023-12-29T03:48:48;20.90;45.90
14138;DHT22;8199;51.310;9.466;2023-12-29T03:51:15;20.90;45.80
14138;DHT22;8199;51.310;9.466;2023-12-29T03:53:41;20.80;45.80
14138;DHT22;8199;51.310;9.466;2023-12-29T03:56:07;20.90;45.80
14138;DHT22;8199;51.310;9.466;2023-12-29T03:58:34;20.90;45.90
14138;DHT22;8199;51.310;9.466;2023-12-29T04:00:59;20.80;45.80
14138;DHT22;8199;51.310;9.466;2023-12-29T04:03:25;20.90;45.80
14138;DHT22;8199;51.310;9.466;2023-12-29T04:05:51;20.90;45.80
14138;DHT22;8199;51.310;9.466;2023-12-29T04:08:16;20.90;45.90
14138;DHT22;8199;51.310;9.466;2023-12-29T04:10:42;20.80;45.80
14138;DHT22;8199;51.310;9.466;2023-12-29T04:13:07;20.90;45.90
14138;DHT22;8199;51.310;9.466;2023-12-29T04:15:33;20.80;45.80
14138;DHT22;8199;51.310;9.466;2023-12-29T04:17:58;20.80;45.80
14138;DHT22;8199;51.310;9.466;2023-12-29T04:20:24;20.80;45.80
14138;DHT22;8199;51.310;9.466;2023-12-29T04:22:50;20.90;45.80
14138;DHT22;8199;51.310;9.466;2023-12-29T04:25:15;20.90;45.70
14138;DHT22;8199;51.310;9.466;2023-12-29T04:27:41;20.90;45.70
14138;DHT22;8199;51.310;9.466;2023-12-29T04:30:07;20.90;45.60
14138;DHT22;8199;51.310;9.466;2023-12-29T04:32:33;20.90;45.70
14138;DHT22;8199;51.310;9.466;2023-12-29T04:34:58;20.90;45.70
14138;DHT22;8199;51.310;9.466;2023-12-29T04:37:24;20.90;45.80
14138;DHT22;8199;51.310;9.466;2023-12-29T04:39:50;20.90;45.80
14138;DHT22;8199;51.310;9.466;2023-12-29T04:42:15;21.00;45.80
14138;DHT22;8199;51.310;9.466;2023-12-29T04:44:43;21.00;45.70
14138;DHT22;8199;51.310;9.466;2023-12-29T04:47:08;20.90;45.60
14138;DHT22;8199;51.310;9.466;2023-12-29T04:49:34;21.00;45.60
14138;DHT22;8199;51.310;9.466;2023-12-29T04:52:00;20.90;45.70
14138;DHT22;8199;51.310;9.466;2023-12-29T04:54:25;20.90;45.70
14138;DHT22;8199;51.310;9.466;2023-12-29T04:56:51;20.90;45.80
14138;DHT22;8199;51.310;9.466;2023-12-29T04:59:16;20.90;45.70
14138;DHT22;8199;51.310;9.466;2023-12-29T05:01:42;20.90;45.60
14138;DHT22;8199;51.310;9.466;2023-12-29T05:04:07;20.90;45.70
14138;DHT22;8199;51.310;9.466;2023-12-29T05:06:33;20.90;45.70
14138;DHT22;8199;51.310;9.466;2023-12-29T05:08:59;20.90;45.70
14138;DHT22;8199;51.310;9.466;2023-12-29T05:11:24;20.90;45.80
14138;DHT22;8199;51.310;9.466;2023-12-29T05:13:50;20.90;45.60
14138;DHT22;8199;51.310;9.466;2023-12-29T05:16:16;20.90;45.70
14138;DHT22;8199;51.310;9.466;2023-12-29T05:18:41;20.90;45.80
14138;DHT22;8199;51.310;9.466;2023-12-29T05:21:17;20.90;45.60
14138;DHT22;8199;51.310;9.466;2023-12-29T05:23:46;20.90;45.80
14138;DHT22;8199;51.310;9.466;2023-12-29T05:26:14;20.80;45.80
14138;DHT22;8199;51.310;9.466;2023-12-29T05:28:39;20.80;45.80
14138;DHT22;8199;51.310;9.466;2023-12-29T05:31:05;20.80;45.90
14138;DHT22;8199;51.310;9.466;2023-12-29T05:33:32;20.80;45.90
14138;DHT22;8199;51.310;9.466;2023-12-29T05:35:58;20.80;45.80
14138;DHT22;8199;51.310;9.466;2023-12-29T05:38:24;20.80;45.90
14138;DHT22;8199;51.310;9.466;2023-12-29T05:40:50;20.70;46.00
14138;DHT22;8199;51.310;9.466;2023-12-29T05:43:16;20.70;46.00
14138;DHT22;8199;51.310;9.466;2023-12-29T05:45:41;20.70;46.10
14138;DHT22;8199;51.310;9.466;2023-12-29T05:48:07;20.60;46.10
14138;DHT22;8199;51.310;9.466;2023-12-29T05:50:33;20.70;46.00
14138;DHT22;8199;51.310;9.466;2023-12-29T05:52:58;20.70;46.00
14138;DHT22;8199;51.310;9.466;2023-12-29T05:55:24;20.70;46.00
14138;DHT22;8199;51.310;9.466;2023-12-29T05:57:49;20.70;45.90
14138;DHT22;8199;51.310;9.466;2023-12-29T06:00:15;20.70;46.00
14138;DHT22;8199;51.310;9.466;2023-12-29T06:02:42;20.70;45.90
14138;DHT22;8199;51.310;9.466;2023-12-29T06:05:09;20.70;45.90
14138;DHT22;8199;51.310;9.466;2023-12-29T06:07:35;20.60;46.00
14138;DHT22;8199;51.310;9.466;2023-12-29T06:10:01;20.70;46.00
14138;DHT22;8199;51.310;9.466;2023-12-29T06:12:26;20.80;45.80
14138;DHT22;8199;51.310;9.466;2023-12-29T06:14:52;20.70;46.00
14138;DHT22;8199;51.310;9.466;2023-12-29T06:17:18;20.70;46.00
14138;DHT22;8199;51.310;9.466;2023-12-29T06:19:43;20.80;46.40
14138;DHT22;8199;51.310;9.466;2023-12-29T06:22:09;20.70;46.00
14138;DHT22;8199;51.310;9.466;2023-12-29T06:24:37;20.70;46.00
14138;DHT22;8199;51.310;9.466;2023-12-29T06:27:03;20.70;45.90
14138;DHT22;8199;51.310;9.466;2023-12-29T06:29:29;20.70;45.90
14138;DHT22;8199;51.310;9.466;2023-12-29T06:31:54;20.70;45.90
14138;DHT22;8199;51.310;9.466;2023-12-29T06:34:20;20.70;45.90
14138;DHT22;8199;51.310;9.466;2023-12-29T06:36:46;20.60;46.00
14138;DHT22;8199;51.310;9.466;2023-12-29T06:39:11;20.70;46.00
14138;DHT22;8199;51.310;9.466;2023-12-29T06:41:37;20.70;45.90
14138;DHT22;8199;51.310;9.466;2023-12-29T06:44:02;20.70;45.90
14138;DHT22;8199;51.310;9.466;2023-12-29T06:46:28;20.70;45.90
14138;DHT22;8199;51.310;9.466;2023-12-29T06:48:54;20.70;46.00
14138;DHT22;8199;51.310;9.466;2023-12-29T06:51:19;20.70;45.80
14138;DHT22;8199;51.310;9.466;2023-12-29T06:53:46;20.70;45.90
14138;DHT22;8199;51.310;9.466;2023-12-29T06:56:16;20.70;46.00
14138;DHT22;8199;51.310;9.466;2023-12-29T06:58:43;20.70;45.90
14138;DHT22;8199;51.310;9.466;2023-12-29T07:01:08;20.70;45.90
14138;DHT22;8199;51.310;9.466;2023-12-29T07:03:34;20.80;45.80
14138;DHT22;8199;51.310;9.466;2023-12-29T07:06:02;20.60;46.00
14138;DHT22;8199;51.310;9.466;2023-12-29T07:08:28;20.70;46.00
14138;DHT22;8199;51.310;9.466;2023-12-29T07:10:54;20.70;46.00
14138;DHT22;8199;51.310;9.466;2023-12-29T07:13:20;20.70;45.90
14138;DHT22;8199;51.310;9.466;2023-12-29T07:15:47;20.70;45.90
14138;DHT22;8199;51.310;9.466;2023-12-29T07:18:13;20.70;45.90
14138;DHT22;8199;51.310;9.466;2023-12-29T07:20:39;20.70;45.90
14138;DHT22;8199;51.310;9.466;2023-12-29T07:23:04;20.70;45.90
14138;DHT22;8199;51.310;9.466;2023-12-29T07:25:30;20.70;46.00
14138;DHT22;8199;51.310;9.466;2023-12-29T07:27:56;20.70;45.90
14138;DHT22;8199;51.310;9.466;2023-12-29T07:30:21;20.70;45.80
14138;DHT22;8199;51.310;9.466;2023-12-29T07:32:47;20.70;45.80
14138;DHT22;8199;51.310;9.466;2023-12-29T07:35:13;20.80;45.80
14138;DHT22;8199;51.310;9.466;2023-12-29T07:37:46;20.70;45.90
14138;DHT22;8199;51.310;9.466;2023-12-29T07:40:12;20.70;46.00
14138;DHT22;8199;51.310;9.466;2023-12-29T07:42:41;20.70;46.00
14138;DHT22;8199;51.310;9.466;2023-12-29T07:45:07;20.70;46.40
14138;DHT22;8199;51.310;9.466;2023-12-29T07:47:34;20.70;45.90
14138;DHT22;8199;51.310;9.466;2023-12-29T07:49:59;20.60;45.90
14138;DHT22;8199;51.310;9.466;2023-12-29T07:52:25;20.70;46.00
14138;DHT22;8199;51.310;9.466;2023-12-29T07:54:50;20.60;45.90
14138;DHT22;8199;51.310;9.466;2023-12-29T07:57:16;20.70;46.00
14138;DHT22;8199;51.310;9.466;2023-12-29T07:59:41;20.70;45.90
14138;DHT22;8199;51.310;9.466;2023-12-29T08:02:07;20.70;45.80
14138;DHT22;8199;51.310;9.466;2023-12-29T08:04:32;20.70;45.80
14138;DHT22;8199;51.310;9.466;2023-12-29T08:06:58;20.70;45.90
14138;DHT22;8199;51.310;9.466;2023-12-29T08:09:25;20.70;46.00
14138;DHT22;8199;51.310;9.466;2023-12-29T08:11:50;20.70;45.90
14138;DHT22;8199;51.310;9.466;2023-12-29T08:14:16;20.70;45.90
14138;DHT22;8199;51.310;9.466;2023-12-29T08:16:42;20.60;46.00
14138;DHT22;8199;51.310;9.466;2023-12-29T08:19:07;20.60;46.10
14138;DHT22;8199;51.310;9.466;2023-12-29T08:21:33;20.60;46.00
14138;DHT22;8199;51.310;9.466;2023-12-29T08:23:59;20.60;46.00
14138;DHT22;8199;51.310;9.466;2023-12-29T08:26:24;20.60;46.00
14138;DHT22;8199;51.310;9.466;2023-12-29T08:28:51;20.70;46.00
14138;DHT22;8199;51.310;9.466;2023-12-29T08:31:18;20.60;46.00
14138;DHT22;8199;51.310;9.466;2023-12-29T08:33:43;20.70;46.20
14138;DHT22;8199;51.310;9.466;2023-12-29T08:36:11;20.60;46.00
14138;DHT22;8199;51.310;9.466;2023-12-29T08:38:37;20.70;46.10
14138;DHT22;8199;51.310;9.466;2023-12-29T08:41:02;20.70;46.00
14138;DHT22;8199;51.310;9.466;2023-12-29T08:43:28;20.60;46.30
14138;DHT22;8199;51.310;9.466;2023-12-29T08:45:53;20.60;46.10
14138;DHT22;8199;51.310;9.466;2023-12-29T08:48:19;20.60;46.00
14138;DHT22;8199;51.310;9.466;2023-12-29T08:50:45;20.60;46.10
14138;DHT22;8199;51.310;9.466;2023-12-29T08:53:10;20.60;46.10
14138;DHT22;8199;51.310;9.466;2023-12-29T08:55:36;20.60;46.10
14138;DHT22;8199;51.310;9.466;2023-12-29T08:58:01;20.60;46.10
14138;DHT22;8199;51.310;9.466;2023-12-29T09:00:27;20.70;46.00
14138;DHT22;8199;51.310;9.466;2023-12-29T09:02:55;20.70;46.00
14138;DHT22;8199;51.310;9.466;2023-12-29T09:05:21;20.70;45.90
14138;DHT22;8199;51.310;9.466;2023-12-29T09:07:47;20.70;45.90
14138;DHT22;8199;51.310;9.466;2023-12-29T09:10:12;20.60;46.00
14138;DHT22;8199;51.310;9.466;2023-12-29T09:12:39;20.60;46.00
14138;DHT22;8199;51.310;9.466;2023-12-29T09:15:05;20.70;46.00
14138;DHT22;8199;51.310;9.466;2023-12-29T09:17:31;20.60;46.10
14138;DHT22;8199;51.310;9.466;2023-12-29T09:19:56;20.60;46.10
14138;DHT22;8199;51.310;9.466;2023-12-29T09:22:22;20.50;46.10
14138;DHT22;8199;51.310;9.466;2023-12-29T09:24:47;20.60;46.00
14138;DHT22;8199;51.310;9.466;2023-12-29T09:27:13;20.60;46.10
14138;DHT22;8199;51.310;9.466;2023-12-29T09:29:39;20.60;46.20
14138;DHT22;8199;51.310;9.466;2023-12-29T09:32:05;20.60;46.20
14138;DHT22;8199;51.310;9.466;2023-12-29T09:34:31;20.60;46.00
14138;DHT22;8199;51.310;9.466;2023-12-29T09:36:57;20.60;46.10
14138;DHT22;8199;51.310;9.466;2023-12-29T09:39:23;20.60;46.10
14138;DHT22;8199;51.310;9.466;2023-12-29T09:41:51;20.60;46.10
14138;DHT22;8199;51.310;9.466;2023-12-29T09:44:20;20.60;46.10
14138;DHT22;8199;51.310;9.466;2023-12-29T09:46:49;20.60;46.10
14138;DHT22;8199;51.310;9.466;2023-12-29T09:49:16;20.60;46.10
14138;DHT22;8199;51.310;9.466;2023-12-29T09:51:43;20.60;46.10
14138;DHT22;8199;51.310;9.466;2023-12-29T09:54:09;20.60;46.10
14138;DHT22;8199;51.310;9.466;2023-12-29T09:56:37;20.60;46.10
14138;DHT22;8199;51.310;9.466;2023-12-29T09:59:03;20.60;46.20
14138;DHT22;8199;51.310;9.466;2023-12-29T10:01:30;20.50;46.10
14138;DHT22;8199;51.310;9.466;2023-12-29T10:03:56;20.60;46.10
14138;DHT22;8199;51.310;9.466;2023-12-29T10:06:24;20.70;46.10
14138;DHT22;8199;51.310;9.466;2023-12-29T10:08:51;20.60;45.90
14138;DHT22;8199;51.310;9.466;2023-12-29T10:11:23;20.70;46.00
14138;DHT22;8199;51.310;9.466;2023-12-29T10:13:51;20.60;46.10
14138;DHT22;8199;51.310;9.466;2023-12-29T10:16:42;20.50;46.10
14138;DHT22;8199;51.310;9.466;2023-12-29T10:19:58;20.50;46.30
14138;DHT22;8199;51.310;9.466;2023-12-29T10:22:29;20.50;46.20
14138;DHT22;8199;51.310;9.466;2023-12-29T10:24:56;20.50;46.20
14138;DHT22;8199;51.310;9.466;2023-12-29T10:27:22;20.50;46.10
14138;DHT22;8199;51.310;9.466;2023-12-29T10:29:48;20.50;46.10
14138;DHT22;8199;51.310;9.466;2023-12-29T10:32:14;20.50;46.10
14138;DHT22;8199;51.310;9.466;2023-12-29T10:34:39;20.50;46.20
14138;DHT22;8199;51.310;9.466;2023-12-29T10:37:07;20.50;46.30
14138;DHT22;8199;51.310;9.466;2023-12-29T10:39:38;20.50;46.20
14138;DHT22;8199;51.310;9.466;2023-12-29T10:42:05;20.50;46.20
14138;DHT22;8199;51.310;9.466;2023-12-29T10:44:33;20.50;46.20
14138;DHT22;8199;51.310;9.466;2023-12-29T10:46:58;20.50;46.20
14138;DHT22;8199;51.310;9.466;2023-12-29T10:49:24;20.50;46.20
14138;DHT22;8199;51.310;9.466;2023-12-29T10:51:50;20.50;46.10
14138;DHT22;8199;51.310;9.466;2023-12-29T10:54:21;20.50;46.20
14138;DHT22;8199;51.310;9.466;2023-12-29T10:57:02;20.60;46.20
14138;DHT22;8199;51.310;9.466;2023-12-29T10:59:28;20.50;46.10
14138;DHT22;8199;51.310;9.466;2023-12-29T11:01:54;20.50;46.10
14138;DHT22;8199;51.310;9.466;2023-12-29T11:04:22;20.50;46.20
14138;DHT22;8199;51.310;9.466;2023-12-29T11:06:48;20.50;46.10
14138;DHT22;8199;51.310;9.466;2023-12-29T11:09:29;20.50;46.10
14138;DHT22;8199;51.310;9.466;2023-12-29T11:12:00;20.60;46.20
14138;DHT22;8199;51.310;9.466;2023-12-29T11:14:26;20.60;46.10
14138;DHT22;8199;51.310;9.466;2023-12-29T11:16:54;20.50;46.20
14138;DHT22;8199;51.310;9.466;2023-12-29T11:19:21;20.60;46.10
14138;DHT22;8199;51.310;9.466;2023-12-29T11:21:48;20.50;46.10
14138;DHT22;8199;51.310;9.466;2023-12-29T11:24:16;20.60;46.10
14138;DHT22;8199;51.310;9.466;2023-12-29T11:26:43;20.60;46.10
14138;DHT22;8199;51.310;9.466;2023-12-29T11:29:09;20.60;46.20
14138;DHT22;8199;51.310;9.466;2023-12-29T11:31:37;20.50;46.10
14138;DHT22;8199;51.310;9.466;2023-12-29T11:34:11;20.60;46.20
14138;DHT22;8199;51.310;9.466;2023-12-29T11:36:41;20.60;46.20
14138;DHT22;8199;51.310;9.466;2023-12-29T11:42:12;20.50;46.20
14138;DHT22;8199;51.310;9.466;2023-12-29T11:44:39;20.60;46.20
14138;DHT22;8199;51.310;9.466;2023-12-29T11:47:05;20.60;46.20
14138;DHT22;8199;51.310;9.466;2023-12-29T11:49:59;20.50;46.10
14138;DHT22;8199;51.310;9.466;2023-12-29T11:52:36;20.60;46.20
14138;DHT22;8199;51.310;9.466;2023-12-29T11:55:13;20.50;46.30
14138;DHT22;8199;51.310;9.466;2023-12-29T11:57:40;20.50;46.20
14138;DHT22;8199;51.310;9.466;2023-12-29T12:00:07;20.50;46.10
14138;DHT22;8199;51.310;9.466;2023-12-29T12:02:33;20.50;46.20
14138;DHT22;8199;51.310;9.466;2023-12-29T12:04:59;20.50;46.30
14138;DHT22;8199;51.310;9.466;2023-12-29T12:09:50;20.50;46.30
14138;DHT22;8199;51.310;9.466;2023-12-29T12:12:40;20.50;46.30
14138;DHT22;8199;51.310;9.466;2023-12-29T12:17:52;20.50;46.20
14138;DHT22;8199;51.310;9.466;2023-12-29T12:20:18;20.60;46.20
14138;DHT22;8199;51.310;9.466;2023-12-29T12:22:44;20.60;46.20
14138;DHT22;8199;51.310;9.466;2023-12-29T12:25:12;20.50;46.30
14138;DHT22;8199;51.310;9.466;2023-12-29T12:27:38;20.50;46.30
14138;DHT22;8199;51.310;9.466;2023-12-29T12:30:05;20.50;46.20
14138;DHT22;8199;51.310;9.466;2023-12-29T12:32:32;20.50;46.20
14138;DHT22;8199;51.310;9.466;2023-12-29T12:34:57;20.50;46.20
14138;DHT22;8199;51.310;9.466;2023-12-29T12:37:25;20.60;46.20
14138;DHT22;8199;51.310;9.466;2023-12-29T12:39:51;20.60;46.10
14138;DHT22;8199;51.310;9.466;2023-12-29T12:42:18;20.50;46.30
14138;DHT22;8199;51.310;9.466;2023-12-29T12:47:55;20.50;46.40
14138;DHT22;8199;51.310;9.466;2023-12-29T12:50:25;20.50;46.30
14138;DHT22;8199;51.310;9.466;2023-12-29T12:52:50;20.50;46.20
14138;DHT22;8199;51.310;9.466;2023-12-29T12:55:17;20.50;46.20
14138;DHT22;8199;51.310;9.466;2023-12-29T12:57:44;20.50;46.30
14138;DHT22;8199;51.310;9.466;2023-12-29T13:00:10;20.50;46.20
14138;DHT22;8199;51.310;9.466;2023-12-29T13:02:36;20.50;46.30
14138;DHT22;8199;51.310;9.466;2023-12-29T13:05:02;20.50;46.20
14138;DHT22;8199;51.310;9.466;2023-12-29T13:07:33;20.50;46.30
14138;DHT22;8199;51.310;9.466;2023-12-29T13:10:00;20.50;46.20
14138;DHT22;8199;51.310;9.466;2023-12-29T13:12:26;20.50;46.20
14138;DHT22;8199;51.310;9.466;2023-12-29T13:14:51;20.50;46.20
14138;DHT22;8199;51.310;9.466;2023-12-29T13:17:17;20.50;46.20
14138;DHT22;8199;51.310;9.466;2023-12-29T13:19:43;20.50;46.20
14138;DHT22;8199;51.310;9.466;2023-12-29T13:22:10;20.50;46.20
14138;DHT22;8199;51.310;9.466;2023-12-29T13:24:42;20.50;46.20
14138;DHT22;8199;51.310;9.466;2023-12-29T13:27:08;20.60;46.20
14138;DHT22;8199;51.310;9.466;2023-12-29T13:29:35;20.50;46.20
14138;DHT22;8199;51.310;9.466;2023-12-29T13:32:06;20.50;46.10
14138;DHT22;8199;51.310;9.466;2023-12-29T13:37:31;20.50;46.20
14138;DHT22;8199;51.310;9.466;2023-12-29T13:40:16;20.50;46.30
14138;DHT22;8199;51.310;9.466;2023-12-29T13:42:46;20.50;46.50
14138;DHT22;8199;51.310;9.466;2023-12-29T13:45:13;20.50;46.20
14138;DHT22;8199;51.310;9.466;2023-12-29T13:47:40;20.50;46.20
14138;DHT22;8199;51.310;9.466;2023-12-29T13:50:09;20.50;46.20
14138;DHT22;8199;51.310;9.466;2023-12-29T13:52:39;20.50;46.10
14138;DHT22;8199;51.310;9.466;2023-12-29T13:55:05;20.50;46.00
14138;DHT22;8199;51.310;9.466;2023-12-29T13:57:35;20.60;46.10
14138;DHT22;8199;51.310;9.466;2023-12-29T14:00:20;20.50;46.10
14138;DHT22;8199;51.310;9.466;2023-12-29T14:03:09;20.60;46.10
14138;DHT22;8199;51.310;9.466;2023-12-29T14:05:43;20.60;46.10
14138;DHT22;8199;51.310;9.466;2023-12-29T14:10:51;20.50;46.00
14138;DHT22;8199;51.310;9.466;2023-12-29T14:13:17;20.50;46.00
14138;DHT22;8199;51.310;9.466;2023-12-29T14:15:44;20.50;46.10
14138;DHT22;8199;51.310;9.466;2023-12-29T14:18:35;20.50;46.20
14138;DHT22;8199;51.310;9.466;2023-12-29T14:21:27;20.50;46.20
14138;DHT22;8199;51.310;9.466;2023-12-29T14:24:13;20.50;46.10
14138;DHT22;8199;51.310;9.466;2023-12-29T14:26:40;20.50;46.20
14138;DHT22;8199;51.310;9.466;2023-12-29T14:29:08;20.50;46.10
14138;DHT22;8199;51.310;9.466;2023-12-29T14:31:39;20.60;46.00
14138;DHT22;8199;51.310;9.466;2023-12-29T14:34:05;20.50;46.10
14138;DHT22;8199;51.310;9.466;2023-12-29T14:36:32;20.50;46.10
14138;DHT22;8199;51.310;9.466;2023-12-29T14:38:58;20.60;46.10
14138;DHT22;8199;51.310;9.466;2023-12-29T14:41:24;20.60;46.10
14138;DHT22;8199;51.310;9.466;2023-12-29T14:43:53;20.50;46.00
14138;DHT22;8199;51.310;9.466;2023-12-29T14:46:19;20.60;46.00
14138;DHT22;8199;51.310;9.466;2023-12-29T14:48:45;20.60;46.10
14138;DHT22;8199;51.310;9.466;2023-12-29T14:51:10;20.60;46.10
14138;DHT22;8199;51.310;9.466;2023-12-29T14:53:37;20.50;46.00
14138;DHT22;8199;51.310;9.466;2023-12-29T14:56:02;20.60;46.00
14138;DHT22;8199;51.310;9.466;2023-12-29T14:58:28;20.60;46.10
14138;DHT22;8199;51.310;9.466;2023-12-29T15:00:54;20.50;46.10
14138;DHT22;8199;51.310;9.466;2023-12-29T15:03:19;20.60;46.00
14138;DHT22;8199;51.310;9.466;2023-12-29T15:05:46;20.50;46.00
14138;DHT22;8199;51.310;9.466;2023-12-29T15:08:12;20.50;46.10
14138;DHT22;8199;51.310;9.466;2023-12-29T15:10:38;20.60;46.10
14138;DHT22;8199;51.310;9.466;2023-12-29T15:13:04;20.60;46.00
14138;DHT22;8199;51.310;9.466;2023-12-29T15:15:33;20.50;46.00
14138;DHT22;8199;51.310;9.466;2023-12-29T15:17:59;20.60;46.10
14138;DHT22;8199;51.310;9.466;2023-12-29T15:20:25;20.60;46.00
14138;DHT22;8199;51.310;9.466;2023-12-29T15:22:50;20.60;46.10
14138;DHT22;8199;51.310;9.466;2023-12-29T15:25:17;20.50;46.10
14138;DHT22;8199;51.310;9.466;2023-12-29T15:27:43;20.50;46.10
14138;DHT22;8199;51.310;9.466;2023-12-29T15:30:09;20.50;46.00
14138;DHT22;8199;51.310;9.466;2023-12-29T15:32:37;20.50;46.10
14138;DHT22;8199;51.310;9.466;2023-12-29T15:35:02;20.60;46.00
14138;DHT22;8199;51.310;9.466;2023-12-29T15:37:28;20.50;46.10
14138;DHT22;8199;51.310;9.466;2023-12-29T15:39:53;20.50;46.10
14138;DHT22;8199;51.310;9.466;2023-12-29T15:42:19;20.50;46.10
14138;DHT22;8199;51.310;9.466;2023-12-29T15:44:45;20.50;46.10
14138;DHT22;8199;51.310;9.466;2023-12-29T15:47:11;20.50;46.10
14138;DHT22;8199;51.310;9.466;2023-12-29T15:49:37;20.50;46.20
14138;DHT22;8199;51.310;9.466;2023-12-29T15:52:03;20.50;46.20
14138;DHT22;8199;51.310;9.466;2023-12-29T15:54:29;20.50;46.10
14138;DHT22;8199;51.310;9.466;2023-12-29T15:56:54;20.40;46.20
14138;DHT22;8199;51.310;9.466;2023-12-29T15:59:20;20.50;46.20
14138;DHT22;8199;51.310;9.466;2023-12-29T16:01:46;20.50;46.30
14138;DHT22;8199;51.310;9.466;2023-12-29T16:04:11;20.50;46.20